Time;durP1;ratioP1;P1;durP2;ratioP2;P2;SDS_P1;SDS_P2;PMS_P1;PMS_P2;Temp;Humidity;BMP_temperature;BMP_pressure;BME280_temperature;BME280_humidity;BME280_pressure;Samples;Min_cycle;Max_cycle;Signal;HPM_P1;HPM_P2
2023/02/27 00:00:20;;;;;;;7.93;4.82;;;1.50;99.90;;;;;;6065951;23;92409;-76
2023/02/27 00:02:50;;;;;;;6.72;4.93;;;1.50;99.90;;;;;;6064618;23;94876;-76
2023/02/27 00:05:18;;;;;;;8.85;5.07;;;1.40;99.90;;;;;;6065485;23;92293;-76
2023/02/27 00:07:45;;;;;;;7.50;4.75;;;1.40;99.90;;;;;;6065749;23;93214;-76
2023/02/27 00:10:13;;;;;;;7.15;4.20;;;1.40;99.90;;;;;;6015929;23;94600;-76
2023/02/27 00:12:40;;;;;;;6.38;4.45;;;1.40;99.90;;;;;;6040598;23;92966;-76
2023/02/27 00:15:10;;;;;;;7.68;4.03;;;1.40;99.90;;;;;;6039597;23;93716;-76
2023/02/27 00:17:37;;;;;;;7.10;4.28;;;1.30;99.90;;;;;;6065332;23;93002;-76
2023/02/27 00:20:09;;;;;;;6.70;3.85;;;1.30;99.90;;;;;;6066043;23;92931;-76
2023/02/27 00:22:37;;;;;;;8.65;4.03;;;1.30;99.90;;;;;;6066338;23;92953;-76
2023/02/27 00:25:06;;;;;;;11.02;4.78;;;1.30;99.90;;;;;;6065816;23;92347;-76
2023/02/27 00:27:33;;;;;;;6.07;3.90;;;1.20;99.90;;;;;;6064433;23;95832;-76
2023/02/27 00:30:02;;;;;;;5.65;3.75;;;1.20;99.90;;;;;;6063700;23;97896;-76
2023/02/27 00:32:29;;;;;;;8.98;3.80;;;1.20;99.90;;;;;;6039815;23;92387;-76
2023/02/27 00:34:56;;;;;;;11.02;4.30;;;1.20;99.90;;;;;;6039583;23;92475;-76
2023/02/27 00:37:23;;;;;;;5.53;4.20;;;1.20;99.90;;;;;;6065674;23;93138;-76
2023/02/27 00:39:51;;;;;;;9.73;4.25;;;1.10;99.90;;;;;;6039208;23;94065;-76
2023/02/27 00:42:18;;;;;;;6.50;3.90;;;1.10;99.90;;;;;;6066075;23;93036;-76
2023/02/27 00:44:45;;;;;;;6.90;3.78;;;1.10;99.90;;;;;;6040685;23;91670;-76
2023/02/27 00:47:12;;;;;;;7.38;4.20;;;1.10;99.90;;;;;;6063736;23;94282;-76
2023/02/27 00:49:39;;;;;;;5.97;3.90;;;1.10;99.90;;;;;;6040116;23;93244;-76
2023/02/27 00:52:06;;;;;;;7.65;4.10;;;1.00;99.90;;;;;;6038129;23;94893;-76
2023/02/27 00:54:33;;;;;;;5.65;4.10;;;1.00;99.90;;;;;;6040215;23;92485;-76
2023/02/27 00:57:00;;;;;;;11.52;4.20;;;1.00;99.90;;;;;;6039452;23;95675;-76
2023/02/27 00:59:27;;;;;;;5.93;3.58;;;1.00;99.90;;;;;;6063773;23;95525;-76
2023/02/27 01:01:54;;;;;;;5.95;4.03;;;0.90;99.90;;;;;;6015348;23;92499;-76
2023/02/27 01:04:21;;;;;;;6.15;3.50;;;0.90;99.90;;;;;;6039974;23;92381;-76
2023/02/27 01:06:48;;;;;;;7.85;3.45;;;0.90;99.90;;;;;;6039340;23;95978;-76
2023/02/27 01:09:15;;;;;;;5.97;3.50;;;0.80;99.90;;;;;;6039437;23;98159;-76
2023/02/27 01:11:42;;;;;;;3.83;3.35;;;0.80;99.90;;;;;;6065835;23;92510;-76
2023/02/27 01:14:09;;;;;;;6.03;3.28;;;0.80;99.90;;;;;;6065338;23;92421;-76
2023/02/27 01:16:36;;;;;;;5.88;3.03;;;0.80;99.90;;;;;;6061933;23;98064;-76
2023/02/27 01:19:03;;;;;;;5.28;3.40;;;0.70;99.90;;;;;;6040093;23;97929;-76
2023/02/27 01:21:30;;;;;;;5.85;3.22;;;0.70;99.90;;;;;;6067152;23;92467;-76
2023/02/27 01:23:57;;;;;;;5.00;2.95;;;0.70;99.90;;;;;;6066593;23;92342;-76
2023/02/27 01:26:24;;;;;;;4.07;2.88;;;0.70;99.90;;;;;;6064908;23;95764;-76
2023/02/27 01:28:52;;;;;;;5.85;3.00;;;0.60;99.90;;;;;;6040660;23;95779;-76
2023/02/27 01:31:19;;;;;;;6.13;3.17;;;0.60;99.90;;;;;;6040579;23;92413;-76
2023/02/27 01:33:47;;;;;;;10.18;3.75;;;0.60;99.90;;;;;;6065844;23;91762;-76
2023/02/27 01:36:15;;;;;;;9.25;3.78;;;0.60;99.90;;;;;;6066475;23;93182;-76
2023/02/27 01:38:42;;;;;;;6.40;3.60;;;0.60;99.90;;;;;;6040193;23;101612;-76
2023/02/27 01:41:09;;;;;;;7.85;3.85;;;0.60;99.90;;;;;;6039640;23;94933;-76
2023/02/27 01:43:52;;;;;;;7.80;3.30;;;0.60;99.90;;;;;;6017146;23;92435;-76
2023/02/27 01:46:19;;;;;;;4.80;3.00;;;0.60;99.90;;;;;;6064879;23;95645;-76
2023/02/27 01:48:46;;;;;;;6.93;3.55;;;0.50;99.90;;;;;;6040940;23;92971;-76
2023/02/27 01:51:18;;;;;;;7.03;3.25;;;0.50;99.90;;;;;;6016697;23;92972;-76
2023/02/27 01:53:49;;;;;;;3.60;3.30;;;0.50;99.90;;;;;;6041299;23;92367;-76
2023/02/27 01:56:25;;;;;;;5.53;3.58;;;0.50;99.90;;;;;;6066346;23;93141;-76
2023/02/27 01:58:57;;;;;;;6.35;3.22;;;0.50;99.90;;;;;;6041272;23;95356;-76
2023/02/27 02:01:25;;;;;;;8.23;3.70;;;0.50;99.90;;;;;;6040931;23;92524;-76
2023/02/27 02:04:20;;;;;;;9.73;3.50;;;0.50;99.90;;;;;;6041523;23;93029;-76
2023/02/27 02:06:51;;;;;;;5.03;3.45;;;0.50;99.90;;;;;;6039159;23;98137;-76
2023/02/27 02:09:20;;;;;;;5.97;3.08;;;0.40;99.90;;;;;;6064924;23;97861;-76
2023/02/27 02:11:47;;;;;;;7.75;3.45;;;0.40;99.90;;;;;;6016589;23;92461;-76
2023/02/27 02:14:16;;;;;;;5.15;3.38;;;0.40;99.90;;;;;;6040385;23;92420;-77
2023/02/27 02:17:09;;;;;;;4.03;3.08;;;0.40;99.90;;;;;;6040357;23;95865;-77
2023/02/27 02:19:47;;;;;;;6.60;3.22;;;0.40;99.90;;;;;;6017272;23;95341;-77
2023/02/27 02:22:28;;;;;;;5.13;2.78;;;0.30;99.90;;;;;;6066656;23;92356;-77
2023/02/27 02:25:35;;;;;;;9.88;3.20;;;0.30;99.90;;;;;;6041424;23;91622;-77
2023/02/27 02:28:44;;;;;;;4.38;2.72;;;0.20;99.90;;;;;;6040541;23;93351;-76
2023/02/27 02:31:53;;;;;;;8.02;2.92;;;0.20;99.90;;;;;;6040313;23;95862;-76
2023/02/27 02:34:50;;;;;;;8.60;3.13;;;0.20;99.90;;;;;;6039297;23;95387;-77
2023/02/27 02:38:04;;;;;;;7.22;3.13;;;0.10;99.90;;;;;;6066218;23;92401;-76
2023/02/27 02:40:42;;;;;;;5.13;2.97;;;0.10;99.90;;;;;;6040309;23;95732;-76
2023/02/27 02:43:25;;;;;;;7.00;3.35;;;0.10;99.90;;;;;;6089391;23;95206;-76
2023/02/27 02:46:04;;;;;;;6.45;3.55;;;0.00;99.90;;;;;;6041023;23;92407;-76
2023/02/27 02:48:43;;;;;;;7.30;3.42;;;0.00;99.90;;;;;;6065429;23;92959;-76
2023/02/27 02:51:15;;;;;;;6.47;3.58;;;0.00;99.90;;;;;;6066335;23;93216;-76
2023/02/27 02:54:01;;;;;;;5.32;3.08;;;0.00;99.90;;;;;;6040478;23;95612;-76
2023/02/27 02:56:47;;;;;;;6.15;3.35;;;0.00;99.90;;;;;;6040846;23;93074;-76
2023/02/27 02:59:37;;;;;;;7.80;3.60;;;0.00;99.90;;;;;;6065035;23;92513;-76
2023/02/27 03:02:15;;;;;;;3.47;2.78;;;0.00;99.90;;;;;;6038744;23;99527;-76
2023/02/27 03:04:54;;;;;;;5.18;3.47;;;0.00;99.90;;;;;;6040388;23;97669;-76
2023/02/27 03:07:49;;;;;;;4.50;3.25;;;-0.10;99.90;;;;;;6040479;23;92385;-76
2023/02/27 03:10:23;;;;;;;6.28;3.20;;;-0.10;99.90;;;;;;6064683;23;92392;-76
2023/02/27 03:13:00;;;;;;;5.32;3.03;;;-0.10;99.90;;;;;;6040394;23;95849;-76
2023/02/27 03:15:36;;;;;;;4.60;3.55;;;-0.10;99.90;;;;;;6040156;23;96050;-76
2023/02/27 03:18:16;;;;;;;7.03;3.30;;;-0.10;99.90;;;;;;6040239;23;92614;-76
2023/02/27 03:20:50;;;;;;;4.95;3.10;;;-0.10;99.90;;;;;;6041358;23;91654;-76
2023/02/27 03:23:23;;;;;;;6.90;3.13;;;-0.20;99.90;;;;;;6040440;23;95678;-76
2023/02/27 03:25:54;;;;;;;13.07;3.03;;;-0.20;99.90;;;;;;6040600;23;95300;-76
2023/02/27 03:28:28;;;;;;;8.52;3.03;;;-0.20;99.90;;;;;;6038876;23;95284;-76
2023/02/27 03:31:18;;;;;;;5.30;2.88;;;-0.20;99.90;;;;;;6040146;23;92511;-76
2023/02/27 03:33:54;;;;;;;4.63;3.00;;;-0.20;99.90;;;;;;6066544;23;93204;-76
2023/02/27 03:36:30;;;;;;;6.22;2.78;;;-0.30;99.90;;;;;;6040143;23;95368;-76
2023/02/27 03:39:13;;;;;;;7.00;3.20;;;-0.30;99.90;;;;;;6040304;23;92463;-76
2023/02/27 03:42:21;;;;;;;5.40;3.10;;;-0.30;99.90;;;;;;6040442;23;92365;-76
2023/02/27 03:45:06;;;;;;;6.38;3.40;;;-0.30;99.90;;;;;;6066236;23;92868;-76
2023/02/27 03:47:35;;;;;;;5.82;3.08;;;-0.30;99.90;;;;;;6040194;23;94881;-76
2023/02/27 03:50:02;;;;;;;7.88;3.40;;;-0.30;99.90;;;;;;6016294;23;92476;-76
2023/02/27 03:52:30;;;;;;;4.30;3.58;;;-0.30;99.90;;;;;;6066072;23;92427;-76
2023/02/27 03:55:37;;;;;;;4.10;3.67;;;-0.30;99.90;;;;;;6038675;23;97737;-76
2023/02/27 03:58:04;;;;;;;5.57;3.08;;;-0.30;99.90;;;;;;6039598;23;97658;-76
2023/02/27 04:00:33;;;;;;;5.82;3.30;;;-0.30;99.90;;;;;;6064055;23;92405;-76
2023/02/27 04:03:01;;;;;;;7.32;3.33;;;-0.40;99.90;;;;;;6040000;23;92399;-76
2023/02/27 04:05:31;;;;;;;6.13;3.47;;;-0.40;99.90;;;;;;6039940;23;95275;-76
2023/02/27 04:08:20;;;;;;;7.47;3.10;;;-0.30;99.90;;;;;;6040157;23;95284;-76
2023/02/27 04:10:56;;;;;;;8.30;3.63;;;-0.30;99.90;;;;;;6040697;23;92393;-76
2023/02/27 04:13:48;;;;;;;7.63;3.60;;;-0.40;99.90;;;;;;6040714;23;91671;-76
2023/02/27 04:16:18;;;;;;;7.35;3.22;;;-0.40;99.90;;;;;;6065972;23;93276;-76
2023/02/27 04:19:08;;;;;;;7.78;3.72;;;-0.40;99.90;;;;;;6065572;23;92843;-76
2023/02/27 04:21:45;;;;;;;4.13;3.30;;;-0.40;99.90;;;;;;6038090;23;95296;-76
2023/02/27 04:24:55;;;;;;;6.68;3.70;;;-0.40;99.90;;;;;;6040568;23;92475;-76
2023/02/27 04:27:28;;;;;;;4.75;3.50;;;-0.40;99.90;;;;;;6040110;23;93299;-76
2023/02/27 04:30:12;;;;;;;6.25;3.65;;;-0.40;99.90;;;;;;6039944;23;95548;-76
2023/02/27 04:33:11;;;;;;;5.90;3.38;;;-0.50;99.90;;;;;;6040209;23;92510;-76
2023/02/27 04:35:53;;;;;;;6.10;3.20;;;-0.50;99.90;;;;;;6026307;23;93117;-76
2023/02/27 04:38:39;;;;;;;6.65;4.82;;;-0.50;99.90;;;;;;6039561;23;95694;-76
2023/02/27 04:41:25;;;;;;;7.50;3.97;;;-0.50;99.90;;;;;;6040697;23;92924;-76
2023/02/27 04:43:54;;;;;;;4.93;3.05;;;-0.50;99.90;;;;;;6066016;23;92339;-76
2023/02/27 04:46:25;;;;;;;5.40;3.60;;;-0.50;99.90;;;;;;6065563;23;92410;-76
2023/02/27 04:49:13;;;;;;;7.93;3.80;;;-0.50;99.90;;;;;;6038442;23;95640;-76
2023/02/27 04:52:07;;;;;;;4.50;3.38;;;-0.60;99.90;;;;;;6039806;23;97874;-76
2023/02/27 04:54:49;;;;;;;7.53;3.97;;;-0.60;99.90;;;;;;6041324;23;92575;-76
2023/02/27 04:57:23;;;;;;;6.93;3.72;;;-0.60;99.90;;;;;;6041438;23;92727;-76
2023/02/27 04:59:54;;;;;;;5.53;3.47;;;-0.70;99.90;;;;;;6041257;23;92475;-76
2023/02/27 05:02:36;;;;;;;6.90;3.47;;;-0.70;99.90;;;;;;6040929;23;94768;-76
2023/02/27 05:05:10;;;;;;;5.70;3.50;;;-0.70;99.90;;;;;;6067332;23;92932;-76
2023/02/27 05:07:56;;;;;;;4.73;3.70;;;-0.70;99.90;;;;;;6041361;23;91594;-76
2023/02/27 05:10:35;;;;;;;5.40;3.80;;;-0.80;99.90;;;;;;6066589;23;93004;-76
2023/02/27 05:13:09;;;;;;;6.43;4.10;;;-0.80;99.90;;;;;;6041282;23;92852;-76
2023/02/27 05:15:56;;;;;;;8.00;3.95;;;-0.80;99.90;;;;;;6039611;23;95367;-76
2023/02/27 05:18:24;;;;;;;8.85;5.85;;;-0.80;99.90;;;;;;6035887;23;92474;-76
2023/02/27 05:20:54;;;;;;;7.40;4.50;;;-0.80;99.90;;;;;;6035828;23;93117;-76
2023/02/27 05:23:59;;;;;;;8.35;4.68;;;-0.80;99.90;;;;;;6037609;23;92883;-76
2023/02/27 05:26:57;;;;;;;7.70;5.18;;;-0.80;99.90;;;;;;6012190;23;92490;-76
2023/02/27 05:29:35;;;;;;;7.53;4.03;;;-0.80;99.90;;;;;;6037866;23;92385;-76
2023/02/27 05:32:33;;;;;;;10.13;4.55;;;-0.80;99.90;;;;;;6060393;23;93407;-76
2023/02/27 05:35:06;;;;;;;10.38;4.93;;;-0.80;99.90;;;;;;6038057;23;92945;-76
2023/02/27 05:37:45;;;;;;;7.30;4.38;;;-0.90;99.90;;;;;;6037421;23;92531;-76
2023/02/27 05:40:18;;;;;;;11.25;4.88;;;-0.80;99.90;;;;;;6037781;23;92437;-76
2023/02/27 05:43:09;;;;;;;4.82;4.22;;;-0.80;99.90;;;;;;6035866;23;95613;-76
2023/02/27 05:45:39;;;;;;;5.70;3.70;;;-0.80;99.90;;;;;;6011470;23;97813;-76
2023/02/27 05:48:13;;;;;;;7.72;4.15;;;-0.90;99.90;;;;;;6060765;23;92853;-76
2023/02/27 05:50:42;;;;;;;8.25;4.25;;;-0.90;99.90;;;;;;6011847;23;92412;-76
2023/02/27 05:53:15;;;;;;;10.15;4.30;;;-0.90;99.90;;;;;;6060168;23;93220;-76
2023/02/27 05:55:46;;;;;;;9.40;4.70;;;-0.90;99.90;;;;;;6035821;23;93070;-76
2023/02/27 05:58:23;;;;;;;7.60;4.78;;;-0.90;99.90;;;;;;6037722;23;92387;-76
2023/02/27 06:00:57;;;;;;;5.95;4.47;;;-0.90;99.90;;;;;;6037986;23;92065;-76
2023/02/27 06:03:27;;;;;;;6.75;4.45;;;-0.90;99.90;;;;;;6059758;23;95650;-76
2023/02/27 06:05:57;;;;;;;8.95;4.88;;;-0.90;99.90;;;;;;6037086;23;92952;-76
2023/02/27 06:08:25;;;;;;;9.77;4.78;;;-0.90;99.90;;;;;;6036208;23;95015;-76
2023/02/27 06:10:54;;;;;;;5.65;4.57;;;-0.90;99.90;;;;;;6059925;23;92493;-76
2023/02/27 06:13:22;;;;;;;8.10;4.63;;;-0.90;99.90;;;;;;6037343;23;93415;-76
2023/02/27 06:15:49;;;;;;;11.88;4.53;;;-0.80;99.90;;;;;;6011291;23;95181;-76
2023/02/27 06:18:17;;;;;;;10.70;4.60;;;-0.80;99.90;;;;;;6055165;23;94413;-76
2023/02/27 06:20:45;;;;;;;8.55;5.65;;;-0.80;99.90;;;;;;6040290;23;92461;-76
2023/02/27 06:23:12;;;;;;;7.65;5.00;;;-0.80;99.90;;;;;;6066705;23;93111;-76
2023/02/27 06:25:41;;;;;;;7.60;4.72;;;-0.80;99.90;;;;;;6064942;23;95640;-76
2023/02/27 06:28:08;;;;;;;7.85;5.07;;;-0.70;99.90;;;;;;6066828;23;93429;-76
2023/02/27 06:30:35;;;;;;;7.03;4.57;;;-0.70;99.90;;;;;;6040660;23;92527;-76
2023/02/27 06:33:03;;;;;;;8.50;4.80;;;-0.60;99.90;;;;;;6064845;23;95677;-76
2023/02/27 06:35:30;;;;;;;7.32;4.63;;;-0.60;99.90;;;;;;6040576;23;95341;-76
2023/02/27 06:37:57;;;;;;;8.23;5.35;;;-0.50;99.90;;;;;;6066372;23;92466;-76
2023/02/27 06:40:25;;;;;;;8.30;5.15;;;-0.30;99.90;;;;;;6040902;23;92500;-76
2023/02/27 06:42:52;;;;;;;7.47;4.78;;;-0.20;99.90;;;;;;6040526;23;93270;-76
2023/02/27 06:45:19;;;;;;;9.60;5.43;;;-0.10;99.90;;;;;;6066393;23;92936;-76
2023/02/27 06:47:45;;;;;;;8.68;4.45;;;0.00;99.90;;;;;;6040191;23;92497;-76
2023/02/27 06:50:13;;;;;;;8.18;4.93;;;0.10;99.90;;;;;;6041146;23;91810;-76
2023/02/27 06:52:40;;;;;;;18.23;5.93;;;0.20;99.90;;;;;;6066090;23;92435;-76
2023/02/27 06:55:08;;;;;;;8.85;5.35;;;0.40;99.90;;;;;;6040855;23;93068;-76
2023/02/27 06:57:35;;;;;;;8.65;5.65;;;0.50;99.90;;;;;;6038837;23;94810;-76
2023/02/27 07:00:05;;;;;;;12.18;5.55;;;0.60;99.90;;;;;;6064766;23;92485;-76
2023/02/27 07:02:32;;;;;;;6.60;5.00;;;0.70;99.90;;;;;;6040327;23;95849;-76
2023/02/27 07:04:59;;;;;;;9.30;4.88;;;0.80;99.90;;;;;;6065920;23;92922;-76
2023/02/27 07:07:26;;;;;;;9.38;4.75;;;0.90;99.90;;;;;;6040530;23;92336;-76
2023/02/27 07:09:57;;;;;;;8.93;4.28;;;1.00;99.90;;;;;;6017098;23;92988;-76
2023/02/27 07:12:23;;;;;;;5.85;4.57;;;1.10;99.90;;;;;;6066150;23;96263;-76
2023/02/27 07:14:51;;;;;;;9.68;4.60;;;1.10;99.90;;;;;;6066283;23;93187;-77
2023/02/27 07:17:18;;;;;;;9.05;4.45;;;1.20;99.90;;;;;;6016090;23;92513;-77
2023/02/27 07:19:45;;;;;;;6.50;4.25;;;1.30;99.90;;;;;;6066243;23;92422;-77
2023/02/27 07:22:12;;;;;;;11.48;5.30;;;1.40;99.90;;;;;;6015022;23;95577;-77
2023/02/27 07:24:40;;;;;;;11.05;4.53;;;1.50;99.90;;;;;;6064352;23;98076;-78
2023/02/27 07:27:07;;;;;;;12.32;4.90;;;1.60;99.90;;;;;;6040836;23;92516;-77
2023/02/27 07:29:34;;;;;;;10.35;4.68;;;1.70;99.90;;;;;;6066425;23;92381;-77
2023/02/27 07:32:02;;;;;;;11.15;4.55;;;1.80;99.90;;;;;;6039830;23;95946;-77
2023/02/27 07:34:29;;;;;;;10.45;5.28;;;1.90;99.90;;;;;;6016272;23;95762;-78
2023/02/27 07:36:56;;;;;;;8.38;5.47;;;2.00;99.90;;;;;;6064137;23;98433;-77
2023/02/27 07:39:23;;;;;;;10.70;4.43;;;2.10;99.90;;;;;;6040488;23;91813;-77
2023/02/27 07:41:50;;;;;;;9.50;4.60;;;2.10;99.90;;;;;;6064368;23;93196;-77
2023/02/27 07:44:17;;;;;;;7.15;4.35;;;2.20;99.90;;;;;;6066366;23;92959;-77
2023/02/27 07:46:46;;;;;;;10.30;4.65;;;2.30;99.90;;;;;;6015168;23;94763;-77
2023/02/27 07:49:13;;;;;;;9.75;4.10;;;2.40;99.90;;;;;;6040873;23;92516;-77
2023/02/27 07:51:40;;;;;;;5.18;4.07;;;2.50;99.90;;;;;;6040660;23;93212;-77
2023/02/27 07:54:07;;;;;;;8.10;4.45;;;2.60;99.90;;;;;;6016005;23;93327;-77
2023/02/27 07:56:34;;;;;;;8.85;3.95;;;2.70;99.90;;;;;;6016553;23;92428;-77
2023/02/27 07:59:01;;;;;;;5.75;3.72;;;2.80;99.90;;;;;;6040405;23;92412;-77
2023/02/27 08:01:28;;;;;;;8.50;3.90;;;3.00;99.90;;;;;;6039940;23;95827;-78
2023/02/27 08:03:56;;;;;;;8.57;4.18;;;3.00;99.90;;;;;;6065889;23;103502;-77
2023/02/27 08:06:23;;;;;;;7.93;4.57;;;3.10;99.90;;;;;;6066318;23;92371;-77
2023/02/27 08:08:51;;;;;;;8.65;4.25;;;3.20;99.90;;;;;;6065999;23;92390;-78
2023/02/27 08:11:18;;;;;;;8.77;3.80;;;3.30;99.90;;;;;;6038786;23;95508;-78
2023/02/27 08:13:45;;;;;;;6.20;4.15;;;3.40;99.90;;;;;;6015716;23;98288;-78
2023/02/27 08:16:29;;;;;;;9.52;3.75;;;3.60;99.90;;;;;;6044098;23;92557;-78
2023/02/27 08:18:57;;;;;;;6.72;3.72;;;3.70;99.90;;;;;;6034733;23;92503;-78
2023/02/27 08:21:24;;;;;;;6.97;3.67;;;3.70;99.90;;;;;;6035056;23;95753;-78
2023/02/27 08:23:52;;;;;;;7.05;4.10;;;3.80;99.90;;;;;;6010920;23;95352;-78
2023/02/27 08:26:20;;;;;;;7.38;3.67;;;3.90;99.90;;;;;;6083488;23;92413;-78
2023/02/27 08:28:47;;;;;;;8.18;3.85;;;4.00;99.90;;;;;;6037365;23;91661;-77
2023/02/27 08:31:14;;;;;;;8.32;3.88;;;4.20;99.90;;;;;;6010948;23;93075;-77
2023/02/27 08:33:41;;;;;;;7.07;3.30;;;4.40;99.90;;;;;;6035157;23;93009;-78
2023/02/27 08:36:08;;;;;;;7.35;4.07;;;4.60;99.90;;;;;;6009718;23;94917;-78
2023/02/27 08:38:36;;;;;;;8.88;4.63;;;4.80;99.90;;;;;;6035260;23;92495;-78
2023/02/27 08:41:03;;;;;;;13.13;4.50;;;5.00;99.90;;;;;;6034820;23;93144;-78
2023/02/27 08:43:30;;;;;;;6.10;3.30;;;5.20;99.90;;;;;;6059171;23;92963;-77
2023/02/27 08:45:57;;;;;;;11.00;3.90;;;5.40;99.90;;;;;;6036642;23;92304;-78
2023/02/27 08:48:24;;;;;;;7.25;3.33;;;5.50;99.90;;;;;;6035165;23;92438;-78
2023/02/27 08:50:51;;;;;;;6.95;3.53;;;5.60;99.90;;;;;;6010835;23;96078;-78
2023/02/27 08:53:19;;;;;;;8.05;2.75;;;5.80;99.90;;;;;;6037019;23;92807;-77
2023/02/27 08:55:52;;;;;;;7.20;2.97;;;5.80;99.90;;;;;;6011423;23;92404;-78
2023/02/27 08:58:19;;;;;;;7.03;2.70;;;5.80;99.90;;;;;;6035183;23;92413;-78
2023/02/27 09:00:46;;;;;;;6.53;3.30;;;5.80;99.90;;;;;;6034872;23;95546;-78
2023/02/27 09:03:14;;;;;;;4.40;2.53;;;5.80;99.90;;;;;;6034001;23;103062;-78
2023/02/27 09:05:41;;;;;;;6.25;2.92;;;5.80;99.90;;;;;;6059285;23;92505;-78
2023/02/27 09:08:08;;;;;;;9.10;2.75;;;5.90;99.90;;;;;;6010773;23;92811;-77
2023/02/27 09:10:36;;;;;;;8.55;2.47;;;6.00;99.90;;;;;;6036315;23;93365;-77
2023/02/27 09:13:03;;;;;;;9.05;3.08;;;6.00;99.90;;;;;;6083253;23;94228;-77
2023/02/27 09:15:31;;;;;;;8.10;2.75;;;6.10;99.90;;;;;;6035012;23;92434;-77
2023/02/27 09:18:05;;;;;;;5.47;3.03;;;6.10;99.90;;;;;;6058711;23;91765;-77
2023/02/27 09:20:34;;;;;;;4.70;2.88;;;6.20;99.90;;;;;;6034916;23;93212;-77
2023/02/27 09:23:03;;;;;;;6.55;3.17;;;6.20;99.90;;;;;;6034515;23;93089;-77
2023/02/27 09:25:30;;;;;;;5.10;2.95;;;6.20;99.90;;;;;;6035176;23;94797;-77
2023/02/27 09:27:57;;;;;;;4.15;2.35;;;6.30;99.90;;;;;;6034844;23;92455;-77
2023/02/27 09:30:24;;;;;;;8.10;2.70;;;6.40;99.90;;;;;;6036066;23;92312;-77
2023/02/27 09:32:51;;;;;;;5.55;2.35;;;6.50;99.90;;;;;;6010251;23;107227;-77
2023/02/27 09:35:21;;;;;;;3.90;2.15;;;6.50;99.90;;;;;;6034409;23;92338;-77
2023/02/27 09:37:48;;;;;;;6.20;2.47;;;6.60;99.90;;;;;;6036892;23;92361;-77
2023/02/27 09:40:23;;;;;;;10.38;2.90;;;6.60;99.90;;;;;;6037202;23;93158;-77
2023/02/27 09:42:52;;;;;;;5.00;2.30;;;6.80;99.90;;;;;;6036487;23;92909;-77
2023/02/27 09:45:23;;;;;;;5.03;2.28;;;6.90;99.90;;;;;;6037706;23;92916;-77
2023/02/27 09:48:02;;;;;;;5.53;1.95;;;6.90;99.90;;;;;;6036045;23;92974;-77
2023/02/27 09:50:33;;;;;;;5.18;2.22;;;6.90;99.90;;;;;;6034514;23;95803;-77
2023/02/27 09:53:00;;;;;;;6.32;2.38;;;7.00;99.90;;;;;;6037191;23;96204;-77
2023/02/27 09:55:30;;;;;;;4.13;2.05;;;7.00;99.90;;;;;;6036274;23;92422;-77
2023/02/27 09:58:26;;;;;;;3.45;2.15;;;7.00;99.90;;;;;;6035744;23;92666;-77
2023/02/27 10:01:03;;;;;;;4.65;2.40;;;7.00;99.90;;;;;;6035648;23;96568;-77
2023/02/27 10:03:33;;;;;;;4.45;1.90;;;7.00;99.90;;;;;;6037799;23;92978;-77
2023/02/27 10:06:31;;;;;;;7.63;2.63;;;7.00;99.90;;;;;;6037654;23;92399;-77
2023/02/27 10:09:04;;;;;;;18.10;3.17;;;7.10;99.90;;;;;;6012300;23;92011;-77
2023/02/27 10:12:04;;;;;;;6.82;2.33;;;7.20;99.90;;;;;;6037422;23;93113;-77
2023/02/27 10:15:08;;;;;;;4.10;2.33;;;7.30;99.90;;;;;;5992019;23;92911;-77
2023/02/27 10:17:42;;;;;;;3.25;1.80;;;7.40;99.90;;;;;;6043196;23;94808;-77
2023/02/27 10:20:35;;;;;;;4.35;1.80;;;7.40;99.90;;;;;;6040833;23;92404;-77
2023/02/27 10:23:13;;;;;;;3.97;1.73;;;7.50;99.90;;;;;;6040962;23;93103;-77
2023/02/27 10:25:45;;;;;;;5.90;2.00;;;7.50;99.90;;;;;;6040574;23;95513;-77
2023/02/27 10:28:15;;;;;;;4.25;1.63;;;7.50;99.90;;;;;;6040959;23;92476;-77
2023/02/27 10:30:47;;;;;;;5.32;1.80;;;7.40;99.90;;;;;;6041037;23;92461;-77
2023/02/27 10:36:58;;;;;;;3.42;1.38;;;7.40;99.90;;;;;;6062354;23;92944;-77
2023/02/27 10:39:25;;;;;;;2.40;1.02;;;7.40;99.90;;;;;;6041316;23;92424;-77
2023/02/27 10:41:54;;;;;;;4.68;1.35;;;7.40;99.90;;;;;;6041133;23;92569;-77
2023/02/27 10:44:23;;;;;;;3.42;1.48;;;7.40;99.90;;;;;;6038740;23;95554;-77
2023/02/27 10:46:50;;;;;;;6.25;1.23;;;7.30;99.90;;;;;;6066298;23;95310;-77
2023/02/27 10:49:20;;;;;;;4.00;1.20;;;7.40;99.90;;;;;;6065913;23;92324;-77
2023/02/27 10:52:05;;;;;;;2.85;1.50;;;7.40;99.90;;;;;;6040842;23;92451;-77
2023/02/27 10:54:32;;;;;;;5.47;1.48;;;7.40;99.90;;;;;;6066045;23;93118;-77
2023/02/27 10:57:01;;;;;;;4.80;1.35;;;7.40;99.90;;;;;;6065755;23;93434;-77
2023/02/27 10:59:54;;;;;;;3.25;1.23;;;7.50;99.90;;;;;;6040021;23;92343;-77
2023/02/27 11:02:28;;;;;;;1.80;0.90;;;7.70;99.90;;;;;;6028337;23;91881;-77
2023/02/27 11:04:58;;;;;;;4.63;1.30;;;7.60;99.90;;;;;;6064753;23;95794;-77
2023/02/27 11:07:36;;;;;;;1.02;0.93;;;7.60;99.90;;;;;;6039770;23;93978;-77
2023/02/27 11:10:18;;;;;;;2.65;1.00;;;7.70;99.90;;;;;;6065130;23;94788;-77
2023/02/27 11:13:05;;;;;;;1.20;0.95;;;7.90;99.90;;;;;;6041111;23;93050;-77
2023/02/27 11:15:35;;;;;;;2.47;1.58;;;7.90;99.90;;;;;;6040462;23;93273;-77
2023/02/27 11:18:20;;;;;;;2.75;1.35;;;8.10;99.90;;;;;;6066235;23;92808;-77
2023/02/27 11:20:49;;;;;;;3.80;1.10;;;8.30;99.90;;;;;;6066524;23;92337;-77
2023/02/27 11:23:20;;;;;;;3.58;1.02;;;8.30;99.10;;;;;;6066150;23;92379;-77
2023/02/27 11:25:48;;;;;;;2.25;0.88;;;8.40;99.20;;;;;;6040615;23;93638;-77
2023/02/27 11:28:25;;;;;;;1.95;0.70;;;8.40;98.80;;;;;;6064605;23;95937;-77
2023/02/27 11:31:13;;;;;;;0.50;0.47;;;8.50;98.80;;;;;;6065000;23;92837;-77
2023/02/27 11:33:52;;;;;;;1.63;0.80;;;8.40;98.00;;;;;;6040947;23;92316;-77
2023/02/27 11:36:22;;;;;;;0.85;0.70;;;8.40;98.50;;;;;;6064663;23;95613;-77
2023/02/27 11:38:52;;;;;;;3.75;0.73;;;8.40;98.40;;;;;;6066213;23;95385;-77
2023/02/27 11:41:28;;;;;;;4.63;1.10;;;8.60;98.30;;;;;;6066243;23;92444;-77
2023/02/27 11:43:57;;;;;;;1.35;0.95;;;8.60;97.90;;;;;;6040348;23;92462;-77
2023/02/27 11:46:25;;;;;;;1.15;0.77;;;8.70;97.80;;;;;;6063927;23;96188;-77
2023/02/27 11:49:23;;;;;;;1.98;0.90;;;8.80;97.80;;;;;;6024316;23;93070;-77
2023/02/27 11:52:02;;;;;;;2.42;0.82;;;8.90;97.90;;;;;;6066413;23;92421;-77
2023/02/27 11:54:46;;;;;;;2.22;0.90;;;9.00;97.70;;;;;;6066567;23;91632;-77
2023/02/27 11:57:27;;;;;;;2.03;1.13;;;9.10;97.60;;;;;;6040204;23;95638;-77
2023/02/27 12:00:02;;;;;;;1.42;0.95;;;9.10;97.50;;;;;;6065996;23;92908;-77
2023/02/27 12:02:47;;;;;;;3.70;1.25;;;9.10;97.50;;;;;;6040323;23;94801;-77
2023/02/27 12:05:23;;;;;;;1.48;1.00;;;9.10;97.40;;;;;;6040573;23;92687;-77
2023/02/27 12:08:05;;;;;;;1.55;0.90;;;9.10;97.40;;;;;;6066118;23;92450;-77
2023/02/27 12:10:50;;;;;;;2.85;1.10;;;9.00;97.30;;;;;;6065719;23;93131;-77
2023/02/27 12:13:28;;;;;;;2.95;1.30;;;9.00;97.80;;;;;;6066267;23;92289;-77
2023/02/27 12:16:21;;;;;;;1.88;0.80;;;9.10;98.00;;;;;;6066175;23;92441;-77
2023/02/27 12:18:58;;;;;;;2.83;1.10;;;9.10;97.50;;;;;;6041601;23;96006;-77
2023/02/27 12:21:30;;;;;;;1.70;0.95;;;9.00;97.80;;;;;;6040023;23;95532;-77
2023/02/27 12:24:03;;;;;;;1.77;0.82;;;9.00;97.30;;;;;;6066252;23;92358;-77
2023/02/27 12:26:36;;;;;;;1.77;1.00;;;9.10;96.90;;;;;;6039982;23;92334;-77
2023/02/27 12:29:21;;;;;;;1.50;0.90;;;9.20;96.30;;;;;;6087257;23;98180;-77
2023/02/27 12:32:18;;;;;;;1.92;1.00;;;9.30;95.80;;;;;;6065803;23;95371;-77
2023/02/27 12:35:08;;;;;;;2.15;1.00;;;9.40;95.70;;;;;;6039845;23;92520;-77
2023/02/27 12:37:36;;;;;;;1.77;0.68;;;9.50;96.20;;;;;;6050587;23;92474;-77
2023/02/27 12:40:13;;;;;;;1.13;0.90;;;9.50;95.80;;;;;;6040034;23;93280;-77
2023/02/27 12:42:52;;;;;;;1.52;0.75;;;9.50;95.50;;;;;;6065616;23;92980;-77
2023/02/27 12:45:38;;;;;;;0.60;0.60;;;9.50;95.40;;;;;;6065990;23;92919;-77
2023/02/27 12:48:14;;;;;;;3.30;0.93;;;9.40;95.30;;;;;;6039794;23;91808;-77
2023/02/27 12:51:02;;;;;;;1.02;0.90;;;9.50;95.10;;;;;;6063376;23;95782;-77
2023/02/27 12:53:44;;;;;;;1.27;0.68;;;9.40;94.60;;;;;;6039126;23;95437;-77
2023/02/27 12:56:20;;;;;;;3.33;1.45;;;9.40;94.10;;;;;;6064373;23;94781;-77
2023/02/27 12:58:54;;;;;;;0.60;0.60;;;9.60;94.20;;;;;;6039397;23;92507;-77
2023/02/27 13:01:42;;;;;;;1.77;0.80;;;9.80;94.30;;;;;;6087946;23;96120;-77
2023/02/27 13:04:16;;;;;;;0.90;0.80;;;10.00;94.20;;;;;;6063533;23;94784;-76
2023/02/27 13:07:03;;;;;;;1.13;0.55;;;10.10;93.10;;;;;;6063598;23;92445;-76
2023/02/27 13:09:36;;;;;;;0.52;0.52;;;10.10;93.20;;;;;;6039280;23;92469;-76
2023/02/27 13:12:06;;;;;;;0.50;0.50;;;10.00;93.30;;;;;;6038978;23;95651;-76
2023/02/27 13:14:51;;;;;;;1.10;0.70;;;9.80;93.30;;;;;;6040710;23;96447;-76
2023/02/27 13:17:33;;;;;;;1.23;0.70;;;9.80;93.70;;;;;;6064932;23;92781;-77
2023/02/27 13:20:25;;;;;;;1.20;0.70;;;9.70;94.20;;;;;;6066836;23;94249;-77
2023/02/27 13:23:07;;;;;;;1.75;0.80;;;9.60;94.10;;;;;;6065053;23;95592;-76
2023/02/27 13:25:37;;;;;;;1.50;0.82;;;9.60;94.50;;;;;;6040683;23;95562;-76
2023/02/27 13:28:10;;;;;;;1.75;0.70;;;9.60;94.70;;;;;;6041378;23;92458;-76
2023/02/27 13:31:05;;;;;;;1.60;0.90;;;9.60;94.10;;;;;;6040970;23;92434;-77
2023/02/27 13:34:06;;;;;;;1.38;0.50;;;9.50;94.20;;;;;;6030414;23;93140;-77